createdAt,value
2023-05-08T00:00:40.775Z,1025.62
2023-05-08T00:01:43.836Z,1025.63
2023-05-08T00:02:48.058Z,1025.62
2023-05-08T00:03:52.420Z,1025.62
2023-05-08T00:04:56.544Z,1025.64
2023-05-08T00:06:00.731Z,1025.67
2023-05-08T00:07:04.923Z,1025.66
2023-05-08T00:08:09.161Z,1025.63
2023-05-08T00:09:13.313Z,1025.61
2023-05-08T00:10:17.576Z,1025.61
2023-05-08T00:11:21.799Z,1025.61
2023-05-08T00:12:26.062Z,1025.59
2023-05-08T00:13:30.247Z,1025.62
2023-05-08T00:14:34.491Z,1025.63
2023-05-08T00:15:38.734Z,1025.61
2023-05-08T00:16:43.125Z,1025.60
2023-05-08T00:17:47.311Z,1025.60
2023-05-08T00:18:54.587Z,1025.57
2023-05-08T00:19:57.831Z,1025.58
2023-05-08T00:21:02.050Z,1025.57
2023-05-08T00:22:06.318Z,1025.57
2023-05-08T00:23:10.540Z,1025.57
2023-05-08T00:24:14.811Z,1025.56
2023-05-08T00:25:18.999Z,1025.57
2023-05-08T00:26:23.276Z,1025.58
2023-05-08T00:27:27.503Z,1025.58
2023-05-08T00:28:31.734Z,1025.60
2023-05-08T00:29:36.010Z,1025.63
2023-05-08T00:30:40.258Z,1025.61
2023-05-08T00:31:44.515Z,1025.63
2023-05-08T00:32:48.756Z,1025.63
2023-05-08T00:33:52.940Z,1025.64
2023-05-08T00:34:57.314Z,1025.69
2023-05-08T00:36:01.577Z,1025.67
2023-05-08T00:37:05.731Z,1025.70
2023-05-08T00:38:09.966Z,1025.72
2023-05-08T00:39:14.258Z,1025.71
2023-05-08T00:40:18.624Z,1025.69
2023-05-08T00:41:22.906Z,1025.71
2023-05-08T00:42:27.155Z,1025.71
2023-05-08T00:43:31.443Z,1025.70
2023-05-08T00:44:35.602Z,1025.71
2023-05-08T00:45:39.971Z,1025.65
2023-05-08T00:46:44.202Z,1025.65
2023-05-08T00:47:48.388Z,1025.63
2023-05-08T00:48:52.600Z,1025.65
2023-05-08T00:49:56.950Z,1025.66
2023-05-08T00:51:01.139Z,1025.66
2023-05-08T00:52:05.349Z,1025.68
2023-05-08T00:53:09.670Z,1025.68
2023-05-08T00:54:14.046Z,1025.66
2023-05-08T00:55:18.238Z,1025.65
2023-05-08T00:56:22.543Z,1025.67
2023-05-08T00:57:26.668Z,1025.68
2023-05-08T00:58:30.973Z,1025.69
2023-05-08T00:59:35.191Z,1025.68
2023-05-08T01:00:39.456Z,1025.68
2023-05-08T01:01:43.796Z,1025.68
2023-05-08T01:02:48.142Z,1025.69
2023-05-08T01:03:52.323Z,1025.68
2023-05-08T01:04:56.440Z,1025.69
2023-05-08T01:06:00.647Z,1025.70
2023-05-08T01:07:04.849Z,1025.71
2023-05-08T01:08:09.142Z,1025.72
2023-05-08T01:09:13.383Z,1025.72
2023-05-08T01:10:17.738Z,1025.73
2023-05-08T01:11:21.978Z,1025.74
2023-05-08T01:12:26.181Z,1025.75
2023-05-08T01:13:30.436Z,1025.76
2023-05-08T01:14:34.657Z,1025.77
2023-05-08T01:15:38.934Z,1025.79
2023-05-08T01:16:43.172Z,1025.79
2023-05-08T01:17:47.473Z,1025.79
2023-05-08T01:18:51.599Z,1025.79
2023-05-08T01:19:55.927Z,1025.77
2023-05-08T01:21:00.149Z,1025.79
2023-05-08T01:22:04.330Z,1025.77
2023-05-08T01:23:08.656Z,1025.78
2023-05-08T01:24:12.951Z,1025.80
2023-05-08T01:25:17.166Z,1025.78
2023-05-08T01:26:21.533Z,1025.78
2023-05-08T01:27:25.700Z,1025.78
2023-05-08T01:28:29.912Z,1025.79
2023-05-08T01:29:34.220Z,1025.79
2023-05-08T01:30:38.607Z,1025.80
2023-05-08T01:31:43.644Z,1025.80
2023-05-08T01:32:47.739Z,1025.80
2023-05-08T01:33:51.848Z,1025.77
2023-05-08T01:34:56.136Z,1025.77
2023-05-08T01:36:00.425Z,1025.78
2023-05-08T01:37:04.731Z,1025.76
2023-05-08T01:38:08.991Z,1025.77
2023-05-08T01:39:13.085Z,1025.75
2023-05-08T01:40:17.430Z,1025.80
2023-05-08T01:41:21.640Z,1025.79
2023-05-08T01:42:25.901Z,1025.81
2023-05-08T01:43:30.148Z,1025.84
2023-05-08T01:44:34.210Z,1025.83
2023-05-08T01:45:38.610Z,1025.85
2023-05-08T01:46:42.836Z,1025.85
2023-05-08T01:47:47.124Z,1025.88
2023-05-08T01:48:51.237Z,1025.86
2023-05-08T01:49:55.509Z,1025.91
2023-05-08T01:50:59.809Z,1025.88
2023-05-08T01:52:04.036Z,1025.87
2023-05-08T01:53:08.323Z,1025.87
2023-05-08T01:54:12.473Z,1025.89
2023-05-08T01:55:16.634Z,1025.87
2023-05-08T01:56:20.905Z,1025.87
2023-05-08T01:57:25.056Z,1025.89
2023-05-08T01:58:29.289Z,1025.90
2023-05-08T01:59:33.484Z,1025.89
2023-05-08T02:00:37.801Z,1025.92
2023-05-08T02:01:56.108Z,1025.95
2023-05-08T02:02:59.434Z,1025.95
2023-05-08T02:04:03.641Z,1025.96
2023-05-08T02:05:07.697Z,1025.97
2023-05-08T02:06:11.983Z,1025.96
2023-05-08T02:07:16.240Z,1025.96
2023-05-08T02:08:20.500Z,1025.97
2023-05-08T02:09:24.654Z,1025.94
2023-05-08T02:10:28.880Z,1025.94
2023-05-08T02:11:33.106Z,1025.93
2023-05-08T02:12:37.389Z,1025.94
2023-05-08T02:13:41.575Z,1025.95
2023-05-08T02:14:45.779Z,1025.95
2023-05-08T02:15:50.040Z,1025.96
2023-05-08T02:16:54.260Z,1025.96
2023-05-08T02:17:58.497Z,1025.97
2023-05-08T02:19:02.696Z,1025.95
2023-05-08T02:20:06.867Z,1025.96
2023-05-08T02:21:11.073Z,1025.98
2023-05-08T02:22:15.369Z,1025.95
2023-05-08T02:23:33.587Z,1025.95
2023-05-08T02:24:36.586Z,1025.95
2023-05-08T02:25:40.739Z,1025.95
2023-05-08T02:26:44.941Z,1025.95
2023-05-08T02:27:49.136Z,1025.95
2023-05-08T02:28:56.390Z,1025.94
2023-05-08T02:29:59.723Z,1025.94
2023-05-08T02:31:03.813Z,1025.98
2023-05-08T02:32:08.130Z,1025.99
2023-05-08T02:33:12.293Z,1025.99
2023-05-08T02:34:16.573Z,1025.99
2023-05-08T02:35:20.768Z,1026.01
2023-05-08T02:36:25.102Z,1026.01
2023-05-08T02:37:29.308Z,1025.99
2023-05-08T02:38:33.519Z,1025.98
2023-05-08T02:39:37.734Z,1025.98
2023-05-08T02:40:42.041Z,1025.96
2023-05-08T02:41:46.223Z,1025.97
2023-05-08T02:42:50.427Z,1025.96
2023-05-08T02:43:54.754Z,1025.91
2023-05-08T02:44:59.081Z,1025.90
2023-05-08T02:46:03.326Z,1025.90
2023-05-08T02:47:07.622Z,1025.89
2023-05-08T02:48:11.706Z,1025.87
2023-05-08T02:49:15.902Z,1025.90
2023-05-08T02:50:20.179Z,1025.89
2023-05-08T02:51:24.353Z,1025.90
2023-05-08T02:52:28.609Z,1025.92
2023-05-08T02:53:32.831Z,1025.90
2023-05-08T02:54:37.005Z,1025.88
2023-05-08T02:55:41.333Z,1025.90
2023-05-08T02:56:45.521Z,1025.84
2023-05-08T02:57:49.859Z,1025.89
2023-05-08T02:58:54.008Z,1025.87
2023-05-08T02:59:58.238Z,1025.88
2023-05-08T03:01:02.551Z,1025.88
2023-05-08T03:02:06.644Z,1025.87
2023-05-08T03:03:11.017Z,1025.88
2023-05-08T03:04:15.224Z,1025.88
2023-05-08T03:05:19.387Z,1025.88
2023-05-08T03:06:23.611Z,1025.91
2023-05-08T03:07:27.831Z,1025.89
2023-05-08T03:08:31.988Z,1025.91
2023-05-08T03:09:36.373Z,1025.90
2023-05-08T03:10:40.499Z,1025.90
2023-05-08T03:11:44.723Z,1025.89
2023-05-08T03:12:49.081Z,1025.90
2023-05-08T03:13:53.273Z,1025.89
2023-05-08T03:14:57.525Z,1025.91
2023-05-08T03:16:01.737Z,1025.92
2023-05-08T03:17:05.883Z,1025.90
2023-05-08T03:18:10.191Z,1025.89
2023-05-08T03:19:23.059Z,1025.90
2023-05-08T03:20:23.185Z,1025.89
2023-05-08T03:21:27.389Z,1025.88
2023-05-08T03:22:31.685Z,1025.88
2023-05-08T03:23:35.990Z,1025.89
2023-05-08T03:24:40.155Z,1025.90
2023-05-08T03:25:44.362Z,1025.90
2023-05-08T03:26:48.625Z,1025.94
2023-05-08T03:28:06.930Z,1025.93
2023-05-08T03:29:10.006Z,1025.94
2023-05-08T03:30:14.537Z,1025.93
2023-05-08T03:31:18.379Z,1025.93
2023-05-08T03:32:22.689Z,1025.91
2023-05-08T03:33:26.880Z,1025.93
2023-05-08T03:34:34.094Z,1025.93
2023-05-08T03:35:40.481Z,1025.90
2023-05-08T03:36:43.766Z,1025.93
2023-05-08T03:37:47.989Z,1025.93
2023-05-08T03:38:52.226Z,1025.93
2023-05-08T03:39:56.480Z,1025.90
2023-05-08T03:41:00.648Z,1025.90
2023-05-08T03:42:04.867Z,1025.89
2023-05-08T03:43:09.058Z,1025.89
2023-05-08T03:44:13.357Z,1025.89
2023-05-08T03:45:17.614Z,1025.87
2023-05-08T03:46:21.832Z,1025.88
2023-05-08T03:47:26.144Z,1025.91
2023-05-08T03:48:30.252Z,1025.90
2023-05-08T03:49:34.503Z,1025.89
2023-05-08T03:50:38.703Z,1025.90
2023-05-08T03:51:42.987Z,1025.93
2023-05-08T03:52:47.231Z,1025.94
2023-05-08T03:53:51.410Z,1025.93
2023-05-08T03:54:55.691Z,1025.93
2023-05-08T03:55:59.888Z,1025.94
2023-05-08T03:57:04.174Z,1025.96
2023-05-08T03:58:08.319Z,1025.97
2023-05-08T03:59:12.598Z,1025.97
2023-05-08T04:00:16.907Z,1025.98
2023-05-08T04:01:21.083Z,1025.99
2023-05-08T04:02:25.395Z,1025.98
2023-05-08T04:03:29.797Z,1025.97
2023-05-08T04:04:33.830Z,1025.96
2023-05-08T04:05:38.244Z,1025.97
2023-05-08T04:06:50.184Z,1025.96
2023-05-08T04:07:46.471Z,1025.95
2023-05-08T04:08:50.738Z,1025.96
2023-05-08T04:09:54.964Z,1025.93
2023-05-08T04:10:59.130Z,1025.95
2023-05-08T04:12:03.472Z,1025.93
2023-05-08T04:13:07.663Z,1025.92
2023-05-08T04:14:11.853Z,1025.91
2023-05-08T04:15:16.323Z,1025.92
2023-05-08T04:16:20.421Z,1025.91
2023-05-08T04:17:24.647Z,1025.91
2023-05-08T04:18:31.892Z,1025.90
2023-05-08T04:19:35.226Z,1025.88
2023-05-08T04:20:39.458Z,1025.83
2023-05-08T04:21:43.747Z,1025.85
2023-05-08T04:22:47.883Z,1025.85
2023-05-08T04:23:52.143Z,1025.85
2023-05-08T04:24:56.399Z,1025.87
2023-05-08T04:26:00.614Z,1025.86
2023-05-08T04:27:04.834Z,1025.89
2023-05-08T04:28:09.146Z,1025.88
2023-05-08T04:29:13.454Z,1025.89
2023-05-08T04:30:17.627Z,1025.90
2023-05-08T04:31:22.008Z,1025.88
2023-05-08T04:32:26.131Z,1025.90
2023-05-08T04:33:30.463Z,1025.91
2023-05-08T04:34:34.697Z,1025.92
2023-05-08T04:35:38.861Z,1025.92
2023-05-08T04:36:43.192Z,1025.93
2023-05-08T04:37:47.282Z,1025.94
2023-05-08T04:38:51.649Z,1025.97
2023-05-08T04:39:58.888Z,1025.94
2023-05-08T04:41:02.269Z,1025.96
2023-05-08T04:42:06.545Z,1025.98
2023-05-08T04:43:10.755Z,1025.99
2023-05-08T04:44:15.073Z,1025.98
2023-05-08T04:45:19.290Z,1025.99
2023-05-08T04:46:37.577Z,1026.01
2023-05-08T04:47:40.774Z,1026.04
2023-05-08T04:48:44.889Z,1026.04
2023-05-08T04:49:49.252Z,1026.03
2023-05-08T04:50:53.451Z,1026.05
2023-05-08T04:51:57.669Z,1026.07
2023-05-08T04:53:01.977Z,1026.08
2023-05-08T04:54:06.199Z,1026.11
2023-05-08T04:55:10.791Z,1026.12
2023-05-08T04:56:14.816Z,1026.10
2023-05-08T04:57:19.086Z,1026.12
2023-05-08T04:58:23.349Z,1026.09
2023-05-08T04:59:27.754Z,1026.10
2023-05-08T05:00:31.990Z,1026.11
2023-05-08T05:01:36.283Z,1026.13
2023-05-08T05:02:40.432Z,1026.11
2023-05-08T05:03:44.698Z,1026.11
2023-05-08T05:04:48.899Z,1026.11
2023-05-08T05:05:53.162Z,1026.10
2023-05-08T05:06:57.447Z,1026.12
2023-05-08T05:08:01.781Z,1026.14
2023-05-08T05:09:05.956Z,1026.15
2023-05-08T05:10:10.346Z,1026.17
2023-05-08T05:11:17.532Z,1026.21
2023-05-08T05:12:20.809Z,1026.17
2023-05-08T05:13:25.059Z,1026.17
2023-05-08T05:14:29.252Z,1026.20
2023-05-08T05:15:33.554Z,1026.22
2023-05-08T05:16:37.897Z,1026.19
2023-05-08T05:17:42.006Z,1026.20
2023-05-08T05:18:46.279Z,1026.21
2023-05-08T05:19:51.601Z,1026.24
2023-05-08T05:20:54.763Z,1026.26
2023-05-08T05:21:59.157Z,1026.26
2023-05-08T05:23:03.354Z,1026.23
2023-05-08T05:24:07.628Z,1026.25
2023-05-08T05:25:12.229Z,1026.23
2023-05-08T05:26:16.089Z,1026.24
2023-05-08T05:27:21.371Z,1026.25
2023-05-08T05:28:24.500Z,1026.29
2023-05-08T05:29:28.796Z,1026.28
2023-05-08T05:30:32.992Z,1026.24
2023-05-08T05:31:37.429Z,1026.29
2023-05-08T05:32:41.613Z,1026.30
2023-05-08T05:33:45.882Z,1026.27
2023-05-08T05:34:50.182Z,1026.23
2023-05-08T05:35:54.428Z,1026.25
2023-05-08T05:36:58.693Z,1026.26
2023-05-08T05:38:03.078Z,1026.25
2023-05-08T05:39:07.281Z,1026.24
2023-05-08T05:40:11.678Z,1026.29
2023-05-08T05:41:15.857Z,1026.26
2023-05-08T05:42:20.200Z,1026.26
2023-05-08T05:43:24.426Z,1026.23
2023-05-08T05:44:28.663Z,1026.24
2023-05-08T05:45:33.790Z,1026.23
2023-05-08T05:46:37.243Z,1026.25
2023-05-08T05:47:41.572Z,1026.25
2023-05-08T05:48:45.790Z,1026.26
2023-05-08T05:49:50.088Z,1026.25
2023-05-08T05:50:54.306Z,1026.26
2023-05-08T05:51:58.647Z,1026.27
2023-05-08T05:53:02.721Z,1026.25
2023-05-08T05:54:07.084Z,1026.25
2023-05-08T05:55:11.580Z,1026.24
2023-05-08T05:56:15.641Z,1026.21
2023-05-08T05:57:20.003Z,1026.24
2023-05-08T05:58:24.230Z,1026.24
2023-05-08T05:59:28.407Z,1026.20
2023-05-08T06:00:32.671Z,1026.20
2023-05-08T06:01:36.962Z,1026.22
2023-05-08T06:02:41.390Z,1026.23
2023-05-08T06:03:45.595Z,1026.24
2023-05-08T06:04:49.749Z,1026.20
2023-05-08T06:05:55.380Z,1026.20
2023-05-08T06:06:58.458Z,1026.18
2023-05-08T06:08:02.594Z,1026.20
2023-05-08T06:09:09.890Z,1026.20
2023-05-08T06:10:13.335Z,1026.22
2023-05-08T06:11:17.591Z,1026.19
2023-05-08T06:12:21.838Z,1026.19
2023-05-08T06:13:26.197Z,1026.18
2023-05-08T06:14:30.289Z,1026.18
2023-05-08T06:15:34.619Z,1026.17
2023-05-08T06:16:39.048Z,1026.17
2023-05-08T06:17:43.306Z,1026.19
2023-05-08T06:18:47.536Z,1026.14
2023-05-08T06:19:51.835Z,1026.15
2023-05-08T06:20:56.084Z,1026.13
2023-05-08T06:22:00.413Z,1026.15
2023-05-08T06:23:04.660Z,1026.19
2023-05-08T06:24:08.975Z,1026.14
2023-05-08T06:25:13.503Z,1026.15
2023-05-08T06:26:17.544Z,1026.14
2023-05-08T06:27:21.803Z,1026.15
2023-05-08T06:28:26.261Z,1026.13
2023-05-08T06:29:30.461Z,1026.13
2023-05-08T06:30:34.751Z,1026.12
2023-05-08T06:31:39.000Z,1026.08
2023-05-08T06:32:43.378Z,1026.09
2023-05-08T06:33:47.588Z,1026.08
2023-05-08T06:34:51.841Z,1026.09
2023-05-08T06:35:56.258Z,1026.10
2023-05-08T06:37:00.458Z,1026.13
2023-05-08T06:38:04.756Z,1026.11
2023-05-08T06:39:09.014Z,1026.14
2023-05-08T06:40:13.366Z,1026.09
2023-05-08T06:41:17.817Z,1026.09
2023-05-08T06:42:21.965Z,1026.08
2023-05-08T06:43:26.261Z,1026.04
2023-05-08T06:44:30.562Z,1026.03
2023-05-08T06:45:34.853Z,1026.09
2023-05-08T06:46:39.189Z,1026.01
2023-05-08T06:47:43.468Z,1026.02
2023-05-08T06:48:47.801Z,1025.98
2023-05-08T06:49:55.083Z,1025.96
2023-05-08T06:51:01.487Z,1025.95
2023-05-08T06:52:04.906Z,1025.91
2023-05-08T06:53:09.237Z,1025.95
2023-05-08T06:54:13.567Z,1025.96
2023-05-08T06:55:17.838Z,1025.97
2023-05-08T06:56:22.185Z,1025.89
2023-05-08T06:57:26.465Z,1025.89
2023-05-08T06:58:30.702Z,1025.89
2023-05-08T06:59:41.061Z,1025.80
2023-05-08T07:00:43.974Z,1025.82
2023-05-08T07:01:48.386Z,1025.84
2023-05-08T07:02:52.614Z,1025.78
2023-05-08T07:03:56.922Z,1025.75
2023-05-08T07:05:01.257Z,1025.73
2023-05-08T07:06:08.504Z,1025.73
2023-05-08T07:07:11.937Z,1025.73
2023-05-08T07:08:16.270Z,1025.69
2023-05-08T07:09:20.515Z,1025.69
2023-05-08T07:10:24.884Z,1025.66
2023-05-08T07:11:32.242Z,1025.59
2023-05-08T07:12:35.588Z,1025.57
2023-05-08T07:13:39.975Z,1025.61
2023-05-08T07:14:44.269Z,1025.51
2023-05-08T07:15:48.598Z,1025.49
2023-05-08T07:16:52.897Z,1025.53
2023-05-08T07:17:57.466Z,1025.50
2023-05-08T07:19:01.629Z,1025.51
2023-05-08T07:20:05.966Z,1025.60
2023-05-08T07:21:10.227Z,1025.57
2023-05-08T07:22:14.625Z,1025.53
2023-05-08T07:23:18.940Z,1025.54
2023-05-08T07:24:23.299Z,1025.54
2023-05-08T07:25:27.555Z,1025.53
2023-05-08T07:26:31.856Z,1025.54
2023-05-08T07:27:36.194Z,1025.52
2023-05-08T07:28:40.615Z,1025.55
2023-05-08T07:29:44.869Z,1025.48
2023-05-08T07:30:49.222Z,1025.50
2023-05-08T07:31:53.613Z,1025.49
2023-05-08T07:32:57.936Z,1025.44
2023-05-08T07:34:02.275Z,1025.43
2023-05-08T07:35:08.379Z,1025.48
2023-05-08T07:36:10.843Z,1025.41
2023-05-08T07:37:15.170Z,1025.40
2023-05-08T07:38:19.550Z,1025.38
2023-05-08T07:39:23.872Z,1025.40
2023-05-08T07:40:28.225Z,1025.38
2023-05-08T07:41:32.628Z,1025.38
2023-05-08T07:42:36.922Z,1025.37
2023-05-08T07:43:41.277Z,1025.35
2023-05-08T07:44:54.459Z,1025.40
2023-05-08T07:45:49.957Z,1025.37
2023-05-08T07:46:54.280Z,1025.35
2023-05-08T07:47:58.621Z,1025.36
2023-05-08T07:49:02.834Z,1025.33
2023-05-08T07:50:07.225Z,1025.39
2023-05-08T07:51:11.541Z,1025.35
2023-05-08T07:52:15.825Z,1025.32
2023-05-08T07:53:20.235Z,1025.31
2023-05-08T07:54:24.607Z,1025.30
2023-05-08T07:55:28.918Z,1025.30
2023-05-08T07:56:33.244Z,1025.24
2023-05-08T07:57:37.617Z,1025.28
2023-05-08T07:58:41.986Z,1025.23
2023-05-08T07:59:46.428Z,1025.20
2023-05-08T08:00:50.751Z,1025.21
2023-05-08T08:01:55.029Z,1025.22
2023-05-08T08:02:59.483Z,1025.19
2023-05-08T08:04:03.806Z,1025.17
2023-05-08T08:05:08.109Z,1025.19
2023-05-08T08:06:26.401Z,1025.17
2023-05-08T08:07:29.516Z,1025.14
2023-05-08T08:08:33.889Z,1025.19
2023-05-08T08:09:38.156Z,1025.24
2023-05-08T08:10:42.511Z,1025.22
2023-05-08T08:11:46.878Z,1025.15
2023-05-08T08:12:51.214Z,1025.13
2023-05-08T08:13:55.404Z,1025.11
2023-05-08T08:14:59.964Z,1025.12
2023-05-08T08:16:04.250Z,1025.15
2023-05-08T08:17:08.751Z,1025.14
2023-05-08T08:18:12.918Z,1025.15
2023-05-08T08:19:17.329Z,1025.09
2023-05-08T08:20:21.661Z,1025.08
2023-05-08T08:21:25.983Z,1025.03
2023-05-08T08:22:30.439Z,1025.07
2023-05-08T08:23:34.735Z,1025.06
2023-05-08T08:24:39.137Z,1025.09
2023-05-08T08:25:43.432Z,1025.09
2023-05-08T08:26:47.858Z,1025.03
2023-05-08T08:27:52.098Z,1025.01
2023-05-08T08:28:56.544Z,1024.98
2023-05-08T08:30:16.087Z,1025.05
2023-05-08T08:31:05.282Z,1025.05
2023-05-08T08:32:09.523Z,1025.02
2023-05-08T08:33:13.886Z,1025.05
2023-05-08T08:34:18.220Z,1025.04
2023-05-08T08:35:22.530Z,1025.02
2023-05-08T08:36:26.835Z,1024.99
2023-05-08T08:37:31.170Z,1025.02
2023-05-08T08:38:35.456Z,1025.06
2023-05-08T08:39:42.819Z,1024.99
2023-05-08T08:40:46.344Z,1024.98
2023-05-08T08:41:50.655Z,1024.94
2023-05-08T08:42:55.056Z,1024.98
2023-05-08T08:43:59.396Z,1025.03
2023-05-08T08:45:03.786Z,1025.03
2023-05-08T08:46:08.230Z,1024.95
2023-05-08T08:47:18.345Z,1025.02
2023-05-08T08:48:21.417Z,1024.95
2023-05-08T08:49:25.711Z,1025.03
2023-05-08T08:50:46.082Z,1024.93
2023-05-08T08:51:49.533Z,1024.97
2023-05-08T08:52:53.755Z,1024.96
2023-05-08T08:53:58.077Z,1024.92
2023-05-08T08:55:02.406Z,1024.93
2023-05-08T08:56:06.722Z,1024.93
2023-05-08T08:57:11.105Z,1024.95
2023-05-08T08:58:18.362Z,1024.88
2023-05-08T08:59:21.801Z,1024.89
2023-05-08T09:00:26.111Z,1024.87
2023-05-08T09:01:30.615Z,1024.90
2023-05-08T09:02:34.929Z,1024.92
2023-05-08T09:03:39.334Z,1024.86
2023-05-08T09:04:43.472Z,1024.86
2023-05-08T09:05:47.863Z,1024.96
2023-05-08T09:06:52.140Z,1024.80
2023-05-08T09:07:56.613Z,1024.84
2023-05-08T09:09:00.888Z,1024.84
2023-05-08T09:10:05.238Z,1024.82
2023-05-08T09:11:09.670Z,1024.85
2023-05-08T09:12:13.893Z,1024.81
2023-05-08T09:13:19.646Z,1024.85
2023-05-08T09:14:22.687Z,1024.84
2023-05-08T09:15:27.042Z,1024.87
2023-05-08T09:16:31.431Z,1024.81
2023-05-08T09:17:35.968Z,1024.80
2023-05-08T09:18:40.132Z,1024.87
2023-05-08T09:19:44.444Z,1024.87
2023-05-08T09:20:48.819Z,1024.89
2023-05-08T09:21:53.058Z,1024.89
2023-05-08T09:22:57.386Z,1024.93
2023-05-08T09:24:01.863Z,1024.89
2023-05-08T09:25:06.096Z,1024.85
2023-05-08T09:26:10.580Z,1024.86
2023-05-08T09:27:14.843Z,1024.85
2023-05-08T09:28:19.277Z,1024.86
2023-05-08T09:29:23.647Z,1024.91
2023-05-08T09:30:28.025Z,1024.86
2023-05-08T09:31:32.847Z,1024.81
2023-05-08T09:32:36.637Z,1024.85
2023-05-08T09:33:41.183Z,1024.86
2023-05-08T09:34:45.422Z,1024.79
2023-05-08T09:35:52.753Z,1024.76
2023-05-08T09:36:56.169Z,1024.77
2023-05-08T09:38:00.448Z,1024.72
2023-05-08T09:39:04.915Z,1024.71
2023-05-08T09:40:09.156Z,1024.73
2023-05-08T09:41:13.618Z,1024.71
2023-05-08T09:42:17.940Z,1024.75
2023-05-08T09:43:22.385Z,1024.76
2023-05-08T09:44:26.704Z,1024.75
2023-05-08T09:45:31.404Z,1024.75
2023-05-08T09:46:35.539Z,1024.77
2023-05-08T09:47:39.887Z,1024.74
2023-05-08T09:48:44.195Z,1024.74
2023-05-08T09:49:48.637Z,1024.73
2023-05-08T09:50:53.070Z,1024.72
2023-05-08T09:51:57.343Z,1024.70
2023-05-08T09:53:01.692Z,1024.66
2023-05-08T09:54:06.039Z,1024.70
2023-05-08T09:55:24.420Z,1024.59
2023-05-08T09:56:27.467Z,1024.64
2023-05-08T09:57:31.869Z,1024.66
2023-05-08T09:58:36.106Z,1024.62
2023-05-08T09:59:40.575Z,1024.65
2023-05-08T10:00:44.902Z,1024.68
2023-05-08T10:01:49.270Z,1024.63
2023-05-08T10:02:53.763Z,1024.62
2023-05-08T10:03:58.293Z,1024.63
2023-05-08T10:05:02.563Z,1024.53
2023-05-08T10:06:06.699Z,1024.53
2023-05-08T10:07:11.184Z,1024.52
2023-05-08T10:08:15.443Z,1024.46
2023-05-08T10:09:19.790Z,1024.39
2023-05-08T10:10:24.161Z,1024.50
2023-05-08T10:11:28.608Z,1024.49
2023-05-08T10:12:32.968Z,1024.50
2023-05-08T10:13:43.427Z,1024.53
2023-05-08T10:14:47.068Z,1024.59
2023-05-08T10:15:50.748Z,1024.59
2023-05-08T10:16:55.166Z,1024.57
2023-05-08T10:17:59.423Z,1024.52
2023-05-08T10:19:03.842Z,1024.51
2023-05-08T10:20:08.046Z,1024.50
2023-05-08T10:21:12.437Z,1024.49
2023-05-08T10:22:16.876Z,1024.51
2023-05-08T10:23:21.135Z,1024.51
2023-05-08T10:24:25.588Z,1024.51
2023-05-08T10:25:29.945Z,1024.56
2023-05-08T10:26:34.244Z,1024.45
2023-05-08T10:27:38.651Z,1024.42
2023-05-08T10:28:42.955Z,1024.43
2023-05-08T10:29:47.384Z,1024.47
2023-05-08T10:30:51.802Z,1024.35
2023-05-08T10:31:56.064Z,1024.36
2023-05-08T10:33:00.430Z,1024.36
2023-05-08T10:34:04.790Z,1024.35
2023-05-08T10:35:09.316Z,1024.36
2023-05-08T10:36:13.488Z,1024.35
2023-05-08T10:37:17.776Z,1024.34
2023-05-08T10:38:22.146Z,1024.35
2023-05-08T10:39:26.591Z,1024.33
2023-05-08T10:40:30.965Z,1024.35
2023-05-08T10:41:35.216Z,1024.30
2023-05-08T10:42:39.525Z,1024.27
2023-05-08T10:43:43.898Z,1024.30
2023-05-08T10:44:48.360Z,1024.27
2023-05-08T10:45:52.585Z,1024.28
2023-05-08T10:46:56.822Z,1024.33
2023-05-08T10:48:01.279Z,1024.24
2023-05-08T10:49:05.533Z,1024.26
2023-05-08T10:50:09.965Z,1024.24
2023-05-08T10:51:14.260Z,1024.20
2023-05-08T10:52:18.577Z,1024.18
2023-05-08T10:53:22.885Z,1024.22
2023-05-08T10:54:29.252Z,1024.13
2023-05-08T10:55:31.705Z,1024.16
2023-05-08T10:56:35.961Z,1024.05
2023-05-08T10:57:40.246Z,1024.06
2023-05-08T10:58:44.673Z,1024.00
2023-05-08T10:59:48.978Z,1024.01
2023-05-08T11:00:53.329Z,1024.14
2023-05-08T11:01:57.786Z,1024.02
2023-05-08T11:03:02.260Z,1023.91
2023-05-08T11:04:06.663Z,1023.94
2023-05-08T11:05:13.875Z,1023.95
2023-05-08T11:06:17.385Z,1023.90
2023-05-08T11:07:21.684Z,1023.87
2023-05-08T11:08:26.013Z,1023.92
2023-05-08T11:09:30.369Z,1023.91
2023-05-08T11:10:34.738Z,1023.87
2023-05-08T11:11:39.033Z,1023.88
2023-05-08T11:12:43.491Z,1023.88
2023-05-08T11:13:47.865Z,1023.93
2023-05-08T11:14:52.260Z,1023.93
2023-05-08T11:15:56.670Z,1023.87
2023-05-08T11:17:00.937Z,1023.77
2023-05-08T11:18:05.398Z,1023.85
2023-05-08T11:19:09.650Z,1023.88
2023-05-08T11:20:14.235Z,1023.82
2023-05-08T11:21:18.361Z,1023.80
2023-05-08T11:22:22.872Z,1023.80
2023-05-08T11:23:27.181Z,1023.76
2023-05-08T11:24:31.670Z,1023.68
2023-05-08T11:25:35.949Z,1023.74
2023-05-08T11:26:40.499Z,1023.68
2023-05-08T11:27:44.822Z,1023.65
2023-05-08T11:28:49.112Z,1023.67
2023-05-08T11:29:53.459Z,1023.67
2023-05-08T11:30:57.953Z,1023.59
2023-05-08T11:32:02.318Z,1023.59
2023-05-08T11:33:06.690Z,1023.58
2023-05-08T11:34:24.933Z,1023.55
2023-05-08T11:35:28.381Z,1023.59
2023-05-08T11:36:32.738Z,1023.47
2023-05-08T11:37:43.246Z,1023.54
2023-05-08T11:38:46.155Z,1023.49
2023-05-08T11:39:50.488Z,1023.48
2023-05-08T11:40:54.987Z,1023.50
2023-05-08T11:41:59.273Z,1023.58
2023-05-08T11:43:03.707Z,1023.43
2023-05-08T11:44:08.096Z,1023.39
2023-05-08T11:45:12.519Z,1023.49
2023-05-08T11:46:17.116Z,1023.41
2023-05-08T11:47:21.371Z,1023.40
2023-05-08T11:48:25.643Z,1023.38
2023-05-08T11:49:30.249Z,1023.42
2023-05-08T11:50:34.427Z,1023.46
2023-05-08T11:51:38.945Z,1023.33
2023-05-08T11:52:43.624Z,1023.45
2023-05-08T11:53:48.029Z,1023.35
2023-05-08T11:54:52.091Z,1023.34
2023-05-08T11:55:56.551Z,1023.30
2023-05-08T11:57:00.840Z,1023.36
2023-05-08T11:58:05.314Z,1023.33
2023-05-08T11:59:09.640Z,1023.29
2023-05-08T12:00:14.353Z,1023.30
2023-05-08T12:01:18.419Z,1023.32
2023-05-08T12:02:22.885Z,1023.25
2023-05-08T12:03:27.363Z,1023.24
2023-05-08T12:04:31.880Z,1023.27
2023-05-08T12:05:36.023Z,1023.23
2023-05-08T12:06:40.546Z,1023.17
2023-05-08T12:07:44.836Z,1023.15
2023-05-08T12:08:49.339Z,1023.15
2023-05-08T12:09:53.710Z,1023.19
2023-05-08T12:10:58.164Z,1023.23
2023-05-08T12:12:02.560Z,1023.27
2023-05-08T12:13:06.896Z,1023.23
2023-05-08T12:14:11.299Z,1023.22
2023-05-08T12:15:15.652Z,1023.22
2023-05-08T12:16:34.071Z,1023.16
2023-05-08T12:17:37.478Z,1023.11
2023-05-08T12:18:41.863Z,1023.15
2023-05-08T12:19:46.240Z,1023.18
2023-05-08T12:20:50.670Z,1023.13
2023-05-08T12:21:55.007Z,1023.13
2023-05-08T12:22:59.478Z,1023.17
2023-05-08T12:24:03.844Z,1023.13
2023-05-08T12:25:08.190Z,1023.08
2023-05-08T12:26:12.506Z,1023.03
2023-05-08T12:27:16.966Z,1022.98
2023-05-08T12:28:21.311Z,1022.98
2023-05-08T12:29:25.752Z,1022.93
2023-05-08T12:30:30.183Z,1022.98
2023-05-08T12:31:34.627Z,1023.02
2023-05-08T12:32:39.195Z,1022.98
2023-05-08T12:33:49.432Z,1023.02
2023-05-08T12:34:52.519Z,1023.01
2023-05-08T12:35:56.914Z,1023.00
2023-05-08T12:37:01.245Z,1023.04
2023-05-08T12:38:05.612Z,1023.08
2023-05-08T12:39:10.250Z,1023.04
2023-05-08T12:40:14.768Z,1023.01
2023-05-08T12:41:18.853Z,1022.98
2023-05-08T12:42:23.321Z,1022.92
2023-05-08T12:43:27.661Z,1023.02
2023-05-08T12:44:32.065Z,1022.95
2023-05-08T12:45:36.459Z,1022.95
2023-05-08T12:46:40.834Z,1022.92
2023-05-08T12:47:45.289Z,1022.93
2023-05-08T12:48:49.594Z,1022.93
2023-05-08T12:49:54.003Z,1022.91
2023-05-08T12:50:58.493Z,1022.90
2023-05-08T12:52:02.807Z,1022.94
2023-05-08T12:53:07.387Z,1022.88
2023-05-08T12:54:11.668Z,1022.92
2023-05-08T12:55:16.151Z,1023.00
2023-05-08T12:56:20.539Z,1022.97
2023-05-08T12:57:24.863Z,1022.97
2023-05-08T12:58:29.256Z,1022.99
2023-05-08T12:59:33.732Z,1022.96
2023-05-08T13:00:38.129Z,1022.94